< < Back
Terminal Aerodrome Forecast


Current Version              Previous Versions:   1  2  3  4  5  6  7  8  9  

Terminal Aerodrome Forecast

143
FTUS44 KOHX 312320
TAFBNA
TAF
KBNA 312320Z 0100/0124 36007KT P6SM SCT250
     FM010900 36004KT 6SM BR OVC007
     FM011400 02008KT 6SM BR OVC015
     FM011700 02010KT P6SM OVC025
     FM011900 01012G20KT P6SM OVC050=



Latest METAR

201
SAUS70 KWBC 010500 RRN
MTRBNA
METAR KBNA 010453Z 00000KT 9SM CLR 25/22 A2996 RMK AO2 SLP137
T02500222


USA.gov is the U.S. government's official web portal to all federal, state and local government web resources and services.